sensor_id;sensor_type;location;lat;lon;timestamp;P1;durP1;ratioP1;P2;durP2;ratioP2
11386;SDS011;5748;53.102;8.456;2023-04-25T00:01:03;2.80;;;1.50;;
11386;SDS011;5748;53.102;8.456;2023-04-25T00:03:30;2.70;;;1.40;;
11386;SDS011;5748;53.102;8.456;2023-04-25T00:05:59;3.97;;;1.50;;
11386;SDS011;5748;53.102;8.456;2023-04-25T00:08:27;2.37;;;1.47;;
11386;SDS011;5748;53.102;8.456;2023-04-25T00:10:55;2.97;;;1.33;;
11386;SDS011;5748;53.102;8.456;2023-04-25T00:13:22;2.83;;;1.30;;
11386;SDS011;5748;53.102;8.456;2023-04-25T00:15:50;4.10;;;1.67;;
11386;SDS011;5748;53.102;8.456;2023-04-25T00:18:24;3.97;;;1.90;;
11386;SDS011;5748;53.102;8.456;2023-04-25T00:20:53;3.67;;;2.07;;
11386;SDS011;5748;53.102;8.456;2023-04-25T00:23:22;4.63;;;2.00;;
11386;SDS011;5748;53.102;8.456;2023-04-25T00:25:49;3.10;;;1.60;;
11386;SDS011;5748;53.102;8.456;2023-04-25T00:28:29;4.33;;;1.60;;
11386;SDS011;5748;53.102;8.456;2023-04-25T00:30:56;3.00;;;1.60;;
11386;SDS011;5748;53.102;8.456;2023-04-25T00:33:23;4.27;;;1.53;;
11386;SDS011;5748;53.102;8.456;2023-04-25T00:35:50;4.33;;;1.80;;
11386;SDS011;5748;53.102;8.456;2023-04-25T00:38:17;5.73;;;2.10;;
11386;SDS011;5748;53.102;8.456;2023-04-25T00:40:45;4.63;;;1.83;;
11386;SDS011;5748;53.102;8.456;2023-04-25T00:43:12;3.17;;;1.57;;
11386;SDS011;5748;53.102;8.456;2023-04-25T00:45:39;3.57;;;1.50;;
11386;SDS011;5748;53.102;8.456;2023-04-25T00:48:06;3.40;;;1.67;;
11386;SDS011;5748;53.102;8.456;2023-04-25T00:50:35;3.33;;;1.43;;
11386;SDS011;5748;53.102;8.456;2023-04-25T00:53:02;3.97;;;1.83;;
11386;SDS011;5748;53.102;8.456;2023-04-25T00:55:30;3.73;;;1.70;;
11386;SDS011;5748;53.102;8.456;2023-04-25T00:57:58;4.17;;;1.50;;
11386;SDS011;5748;53.102;8.456;2023-04-25T01:00:26;2.43;;;1.43;;
11386;SDS011;5748;53.102;8.456;2023-04-25T01:02:53;3.17;;;1.60;;
11386;SDS011;5748;53.102;8.456;2023-04-25T01:05:27;2.53;;;1.70;;
11386;SDS011;5748;53.102;8.456;2023-04-25T01:07:54;3.83;;;1.20;;
11386;SDS011;5748;53.102;8.456;2023-04-25T01:10:21;3.07;;;1.57;;
11386;SDS011;5748;53.102;8.456;2023-04-25T01:12:48;4.00;;;1.57;;
11386;SDS011;5748;53.102;8.456;2023-04-25T01:15:16;2.77;;;1.37;;
11386;SDS011;5748;53.102;8.456;2023-04-25T01:17:43;3.83;;;1.83;;
11386;SDS011;5748;53.102;8.456;2023-04-25T01:20:11;2.40;;;1.50;;
11386;SDS011;5748;53.102;8.456;2023-04-25T01:22:41;4.00;;;1.47;;
11386;SDS011;5748;53.102;8.456;2023-04-25T01:25:08;2.77;;;1.30;;
11386;SDS011;5748;53.102;8.456;2023-04-25T01:27:36;3.47;;;1.90;;
11386;SDS011;5748;53.102;8.456;2023-04-25T01:30:04;4.20;;;1.50;;
11386;SDS011;5748;53.102;8.456;2023-04-25T01:32:33;2.27;;;1.40;;
11386;SDS011;5748;53.102;8.456;2023-04-25T01:38:25;2.27;;;1.70;;
11386;SDS011;5748;53.102;8.456;2023-04-25T01:40:53;2.93;;;1.33;;
11386;SDS011;5748;53.102;8.456;2023-04-25T01:43:32;4.37;;;1.83;;
11386;SDS011;5748;53.102;8.456;2023-04-25T01:45:59;2.80;;;1.40;;
11386;SDS011;5748;53.102;8.456;2023-04-25T01:48:26;4.53;;;1.60;;
11386;SDS011;5748;53.102;8.456;2023-04-25T01:50:53;3.23;;;1.50;;
11386;SDS011;5748;53.102;8.456;2023-04-25T01:53:32;2.63;;;1.60;;
11386;SDS011;5748;53.102;8.456;2023-04-25T01:56:00;2.50;;;1.50;;
11386;SDS011;5748;53.102;8.456;2023-04-25T01:58:27;2.33;;;1.40;;
11386;SDS011;5748;53.102;8.456;2023-04-25T02:00:54;5.43;;;1.60;;
11386;SDS011;5748;53.102;8.456;2023-04-25T02:03:21;2.70;;;1.30;;
11386;SDS011;5748;53.102;8.456;2023-04-25T02:05:48;4.40;;;1.87;;
11386;SDS011;5748;53.102;8.456;2023-04-25T02:08:15;2.27;;;1.60;;
11386;SDS011;5748;53.102;8.456;2023-04-25T02:10:49;3.73;;;1.73;;
11386;SDS011;5748;53.102;8.456;2023-04-25T02:13:16;2.67;;;1.40;;
11386;SDS011;5748;53.102;8.456;2023-04-25T02:15:44;3.37;;;1.77;;
11386;SDS011;5748;53.102;8.456;2023-04-25T02:18:11;4.03;;;1.70;;
11386;SDS011;5748;53.102;8.456;2023-04-25T02:20:38;2.47;;;1.40;;
11386;SDS011;5748;53.102;8.456;2023-04-25T02:23:05;2.33;;;1.27;;
11386;SDS011;5748;53.102;8.456;2023-04-25T02:25:41;1.83;;;1.33;;
11386;SDS011;5748;53.102;8.456;2023-04-25T02:28:09;2.67;;;1.40;;
11386;SDS011;5748;53.102;8.456;2023-04-25T02:30:37;3.50;;;1.70;;
11386;SDS011;5748;53.102;8.456;2023-04-25T02:33:04;2.97;;;1.37;;
11386;SDS011;5748;53.102;8.456;2023-04-25T02:35:31;3.47;;;1.63;;
11386;SDS011;5748;53.102;8.456;2023-04-25T02:37:58;2.10;;;1.40;;
11386;SDS011;5748;53.102;8.456;2023-04-25T02:40:25;3.03;;;1.60;;
11386;SDS011;5748;53.102;8.456;2023-04-25T02:42:52;3.50;;;1.50;;
11386;SDS011;5748;53.102;8.456;2023-04-25T02:45:21;2.80;;;1.60;;
11386;SDS011;5748;53.102;8.456;2023-04-25T02:47:48;2.60;;;1.50;;
11386;SDS011;5748;53.102;8.456;2023-04-25T02:50:15;3.47;;;1.70;;
11386;SDS011;5748;53.102;8.456;2023-04-25T02:52:43;3.83;;;1.60;;
11386;SDS011;5748;53.102;8.456;2023-04-25T02:55:10;3.10;;;1.67;;
11386;SDS011;5748;53.102;8.456;2023-04-25T02:57:38;1.87;;;1.40;;
11386;SDS011;5748;53.102;8.456;2023-04-25T03:00:05;2.13;;;1.40;;
11386;SDS011;5748;53.102;8.456;2023-04-25T03:02:35;1.97;;;1.50;;
11386;SDS011;5748;53.102;8.456;2023-04-25T03:05:02;2.13;;;1.23;;
11386;SDS011;5748;53.102;8.456;2023-04-25T03:07:29;2.40;;;1.50;;
11386;SDS011;5748;53.102;8.456;2023-04-25T03:09:56;1.97;;;1.37;;
11386;SDS011;5748;53.102;8.456;2023-04-25T03:12:23;3.07;;;1.20;;
11386;SDS011;5748;53.102;8.456;2023-04-25T03:14:50;2.83;;;1.20;;
11386;SDS011;5748;53.102;8.456;2023-04-25T03:17:17;4.10;;;1.40;;
11386;SDS011;5748;53.102;8.456;2023-04-25T03:19:45;2.03;;;1.20;;
11386;SDS011;5748;53.102;8.456;2023-04-25T03:22:12;1.97;;;1.20;;
11386;SDS011;5748;53.102;8.456;2023-04-25T03:24:40;3.10;;;1.57;;
11386;SDS011;5748;53.102;8.456;2023-04-25T03:27:07;3.03;;;1.50;;
11386;SDS011;5748;53.102;8.456;2023-04-25T03:29:35;3.57;;;1.50;;
11386;SDS011;5748;53.102;8.456;2023-04-25T03:32:02;2.43;;;1.33;;
11386;SDS011;5748;53.102;8.456;2023-04-25T03:34:28;2.10;;;1.30;;
11386;SDS011;5748;53.102;8.456;2023-04-25T03:36:57;3.30;;;1.60;;
11386;SDS011;5748;53.102;8.456;2023-04-25T03:39:25;2.67;;;1.50;;
11386;SDS011;5748;53.102;8.456;2023-04-25T03:41:52;2.90;;;1.50;;
11386;SDS011;5748;53.102;8.456;2023-04-25T03:44:19;2.17;;;1.20;;
11386;SDS011;5748;53.102;8.456;2023-04-25T03:46:46;2.57;;;1.60;;
11386;SDS011;5748;53.102;8.456;2023-04-25T03:49:13;3.28;;;1.50;;
11386;SDS011;5748;53.102;8.456;2023-04-25T03:51:40;3.00;;;1.50;;
11386;SDS011;5748;53.102;8.456;2023-04-25T03:54:08;4.80;;;1.60;;
11386;SDS011;5748;53.102;8.456;2023-04-25T03:56:35;3.43;;;1.30;;
11386;SDS011;5748;53.102;8.456;2023-04-25T03:59:02;2.23;;;1.30;;
11386;SDS011;5748;53.102;8.456;2023-04-25T04:01:29;1.73;;;1.20;;
11386;SDS011;5748;53.102;8.456;2023-04-25T04:03:56;2.07;;;1.23;;
11386;SDS011;5748;53.102;8.456;2023-04-25T04:06:23;1.27;;;1.10;;
11386;SDS011;5748;53.102;8.456;2023-04-25T04:08:50;1.97;;;1.33;;
11386;SDS011;5748;53.102;8.456;2023-04-25T04:11:25;3.40;;;1.30;;
11386;SDS011;5748;53.102;8.456;2023-04-25T04:13:52;3.67;;;1.50;;
11386;SDS011;5748;53.102;8.456;2023-04-25T04:16:19;1.90;;;1.30;;
11386;SDS011;5748;53.102;8.456;2023-04-25T04:18:46;2.47;;;1.40;;
11386;SDS011;5748;53.102;8.456;2023-04-25T04:21:14;2.53;;;1.20;;
11386;SDS011;5748;53.102;8.456;2023-04-25T04:23:41;1.60;;;1.10;;
11386;SDS011;5748;53.102;8.456;2023-04-25T04:26:08;3.53;;;1.30;;
11386;SDS011;5748;53.102;8.456;2023-04-25T04:28:37;2.57;;;1.33;;
11386;SDS011;5748;53.102;8.456;2023-04-25T04:31:05;2.43;;;1.30;;
11386;SDS011;5748;53.102;8.456;2023-04-25T04:33:32;1.83;;;1.13;;
11386;SDS011;5748;53.102;8.456;2023-04-25T04:36:00;2.53;;;1.20;;
11386;SDS011;5748;53.102;8.456;2023-04-25T04:38:27;3.17;;;1.33;;
11386;SDS011;5748;53.102;8.456;2023-04-25T04:40:55;1.50;;;1.10;;
11386;SDS011;5748;53.102;8.456;2023-04-25T04:43:22;2.07;;;1.40;;
11386;SDS011;5748;53.102;8.456;2023-04-25T04:45:59;2.50;;;1.30;;
11386;SDS011;5748;53.102;8.456;2023-04-25T04:48:28;3.03;;;1.30;;
11386;SDS011;5748;53.102;8.456;2023-04-25T04:50:57;3.93;;;1.33;;
11386;SDS011;5748;53.102;8.456;2023-04-25T04:53:24;2.17;;;1.37;;
11386;SDS011;5748;53.102;8.456;2023-04-25T04:55:51;3.60;;;0.97;;
11386;SDS011;5748;53.102;8.456;2023-04-25T04:58:18;2.13;;;1.23;;
11386;SDS011;5748;53.102;8.456;2023-04-25T05:00:45;2.83;;;1.20;;
11386;SDS011;5748;53.102;8.456;2023-04-25T05:03:14;2.37;;;1.43;;
11386;SDS011;5748;53.102;8.456;2023-04-25T05:05:41;1.83;;;0.90;;
11386;SDS011;5748;53.102;8.456;2023-04-25T05:08:12;2.13;;;1.33;;
11386;SDS011;5748;53.102;8.456;2023-04-25T05:10:39;2.97;;;1.60;;
11386;SDS011;5748;53.102;8.456;2023-04-25T05:13:06;2.70;;;1.47;;
11386;SDS011;5748;53.102;8.456;2023-04-25T05:15:33;2.33;;;1.30;;
11386;SDS011;5748;53.102;8.456;2023-04-25T05:18:01;2.67;;;1.40;;
11386;SDS011;5748;53.102;8.456;2023-04-25T05:20:29;2.10;;;1.10;;
11386;SDS011;5748;53.102;8.456;2023-04-25T05:22:57;1.87;;;1.20;;
11386;SDS011;5748;53.102;8.456;2023-04-25T05:25:24;2.50;;;1.40;;
11386;SDS011;5748;53.102;8.456;2023-04-25T05:27:57;2.07;;;1.30;;
11386;SDS011;5748;53.102;8.456;2023-04-25T05:30:25;2.60;;;1.60;;
11386;SDS011;5748;53.102;8.456;2023-04-25T05:32:54;3.23;;;1.60;;
11386;SDS011;5748;53.102;8.456;2023-04-25T05:35:22;1.77;;;1.20;;
11386;SDS011;5748;53.102;8.456;2023-04-25T05:37:50;2.27;;;1.13;;
11386;SDS011;5748;53.102;8.456;2023-04-25T05:40:17;1.07;;;0.90;;
11386;SDS011;5748;53.102;8.456;2023-04-25T05:42:44;1.37;;;1.10;;
11386;SDS011;5748;53.102;8.456;2023-04-25T05:45:11;2.47;;;1.53;;
11386;SDS011;5748;53.102;8.456;2023-04-25T05:47:38;2.63;;;1.03;;
11386;SDS011;5748;53.102;8.456;2023-04-25T05:50:06;2.20;;;1.47;;
11386;SDS011;5748;53.102;8.456;2023-04-25T05:52:34;2.27;;;1.07;;
11386;SDS011;5748;53.102;8.456;2023-04-25T05:55:03;1.63;;;1.20;;
11386;SDS011;5748;53.102;8.456;2023-04-25T05:57:31;2.63;;;1.47;;
11386;SDS011;5748;53.102;8.456;2023-04-25T05:59:58;3.50;;;1.70;;
11386;SDS011;5748;53.102;8.456;2023-04-25T06:02:25;2.83;;;1.40;;
11386;SDS011;5748;53.102;8.456;2023-04-25T06:04:52;2.83;;;1.40;;
11386;SDS011;5748;53.102;8.456;2023-04-25T06:07:19;2.00;;;1.30;;
11386;SDS011;5748;53.102;8.456;2023-04-25T06:09:46;3.07;;;1.37;;
11386;SDS011;5748;53.102;8.456;2023-04-25T06:12:15;2.40;;;1.33;;
11386;SDS011;5748;53.102;8.456;2023-04-25T06:14:43;2.30;;;1.40;;
11386;SDS011;5748;53.102;8.456;2023-04-25T06:17:10;2.57;;;1.40;;
11386;SDS011;5748;53.102;8.456;2023-04-25T06:19:37;1.83;;;1.20;;
11386;SDS011;5748;53.102;8.456;2023-04-25T06:22:04;1.80;;;1.17;;
11386;SDS011;5748;53.102;8.456;2023-04-25T06:24:32;2.43;;;1.20;;
11386;SDS011;5748;53.102;8.456;2023-04-25T06:26:59;2.97;;;1.50;;
11386;SDS011;5748;53.102;8.456;2023-04-25T06:29:30;2.47;;;1.10;;
11386;SDS011;5748;53.102;8.456;2023-04-25T06:31:57;1.93;;;1.23;;
11386;SDS011;5748;53.102;8.456;2023-04-25T06:34:24;1.87;;;1.03;;
11386;SDS011;5748;53.102;8.456;2023-04-25T06:36:51;3.03;;;1.20;;
11386;SDS011;5748;53.102;8.456;2023-04-25T06:39:18;3.43;;;1.43;;
11386;SDS011;5748;53.102;8.456;2023-04-25T06:41:45;1.60;;;1.00;;
11386;SDS011;5748;53.102;8.456;2023-04-25T06:44:13;2.40;;;1.10;;
11386;SDS011;5748;53.102;8.456;2023-04-25T06:46:41;3.30;;;1.23;;
11386;SDS011;5748;53.102;8.456;2023-04-25T06:49:08;3.60;;;1.40;;
11386;SDS011;5748;53.102;8.456;2023-04-25T06:51:35;2.20;;;0.80;;
11386;SDS011;5748;53.102;8.456;2023-04-25T06:54:02;3.23;;;1.03;;
11386;SDS011;5748;53.102;8.456;2023-04-25T06:56:30;3.33;;;1.43;;
11386;SDS011;5748;53.102;8.456;2023-04-25T06:58:57;1.53;;;1.20;;
11386;SDS011;5748;53.102;8.456;2023-04-25T07:01:25;3.60;;;1.10;;
11386;SDS011;5748;53.102;8.456;2023-04-25T07:03:54;3.67;;;1.43;;
11386;SDS011;5748;53.102;8.456;2023-04-25T07:06:21;1.90;;;1.20;;
11386;SDS011;5748;53.102;8.456;2023-04-25T07:08:48;2.23;;;1.30;;
11386;SDS011;5748;53.102;8.456;2023-04-25T07:11:15;1.73;;;1.30;;
11386;SDS011;5748;53.102;8.456;2023-04-25T07:13:42;2.20;;;1.33;;
11386;SDS011;5748;53.102;8.456;2023-04-25T07:16:09;3.10;;;1.13;;
11386;SDS011;5748;53.102;8.456;2023-04-25T07:18:36;1.90;;;1.07;;
11386;SDS011;5748;53.102;8.456;2023-04-25T07:21:04;1.93;;;1.23;;
11386;SDS011;5748;53.102;8.456;2023-04-25T07:23:32;1.83;;;0.90;;
11386;SDS011;5748;53.102;8.456;2023-04-25T07:26:06;3.03;;;1.20;;
11386;SDS011;5748;53.102;8.456;2023-04-25T07:28:34;1.77;;;1.00;;
11386;SDS011;5748;53.102;8.456;2023-04-25T07:31:01;2.20;;;1.20;;
11386;SDS011;5748;53.102;8.456;2023-04-25T07:33:28;1.70;;;1.10;;
11386;SDS011;5748;53.102;8.456;2023-04-25T07:35:55;1.50;;;1.00;;
11386;SDS011;5748;53.102;8.456;2023-04-25T07:38:25;2.10;;;1.00;;
11386;SDS011;5748;53.102;8.456;2023-04-25T07:40:52;2.10;;;1.20;;
11386;SDS011;5748;53.102;8.456;2023-04-25T07:43:19;2.67;;;1.40;;
11386;SDS011;5748;53.102;8.456;2023-04-25T07:45:46;1.50;;;0.90;;
11386;SDS011;5748;53.102;8.456;2023-04-25T07:48:16;1.47;;;0.90;;
11386;SDS011;5748;53.102;8.456;2023-04-25T07:50:43;2.10;;;1.00;;
11386;SDS011;5748;53.102;8.456;2023-04-25T07:53:10;2.03;;;1.00;;
11386;SDS011;5748;53.102;8.456;2023-04-25T07:55:39;1.53;;;1.00;;
11386;SDS011;5748;53.102;8.456;2023-04-25T07:58:06;2.43;;;0.90;;
11386;SDS011;5748;53.102;8.456;2023-04-25T08:00:33;1.20;;;0.90;;
11386;SDS011;5748;53.102;8.456;2023-04-25T08:03:00;2.53;;;1.07;;
11386;SDS011;5748;53.102;8.456;2023-04-25T08:05:28;3.13;;;1.37;;
11386;SDS011;5748;53.102;8.456;2023-04-25T08:07:56;1.47;;;0.90;;
11386;SDS011;5748;53.102;8.456;2023-04-25T08:10:24;1.77;;;1.10;;
11386;SDS011;5748;53.102;8.456;2023-04-25T08:12:52;2.50;;;0.93;;
11386;SDS011;5748;53.102;8.456;2023-04-25T08:15:19;2.80;;;1.07;;
11386;SDS011;5748;53.102;8.456;2023-04-25T08:17:46;2.37;;;0.90;;
11386;SDS011;5748;53.102;8.456;2023-04-25T08:20:13;1.20;;;0.70;;
11386;SDS011;5748;53.102;8.456;2023-04-25T08:22:42;0.87;;;0.60;;
11386;SDS011;5748;53.102;8.456;2023-04-25T08:25:09;0.93;;;0.80;;
11386;SDS011;5748;53.102;8.456;2023-04-25T08:27:36;1.40;;;0.57;;
11386;SDS011;5748;53.102;8.456;2023-04-25T08:30:05;0.93;;;0.60;;
11386;SDS011;5748;53.102;8.456;2023-04-25T08:32:34;0.77;;;0.60;;
11386;SDS011;5748;53.102;8.456;2023-04-25T08:35:03;2.07;;;0.67;;
11386;SDS011;5748;53.102;8.456;2023-04-25T08:37:30;1.33;;;0.70;;
11386;SDS011;5748;53.102;8.456;2023-04-25T08:39:57;1.27;;;0.87;;
11386;SDS011;5748;53.102;8.456;2023-04-25T08:42:26;1.10;;;0.70;;
11386;SDS011;5748;53.102;8.456;2023-04-25T08:44:53;1.43;;;0.83;;
11386;SDS011;5748;53.102;8.456;2023-04-25T08:47:24;2.93;;;0.97;;
11386;SDS011;5748;53.102;8.456;2023-04-25T08:49:52;2.40;;;0.90;;
11386;SDS011;5748;53.102;8.456;2023-04-25T08:52:27;4.27;;;1.00;;
11386;SDS011;5748;53.102;8.456;2023-04-25T08:55:06;2.10;;;0.93;;
11386;SDS011;5748;53.102;8.456;2023-04-25T08:57:35;1.33;;;0.80;;
11386;SDS011;5748;53.102;8.456;2023-04-25T09:00:05;1.77;;;1.00;;
11386;SDS011;5748;53.102;8.456;2023-04-25T09:02:35;1.87;;;0.87;;
11386;SDS011;5748;53.102;8.456;2023-04-25T09:05:03;1.57;;;0.90;;
11386;SDS011;5748;53.102;8.456;2023-04-25T09:07:31;1.30;;;0.77;;
11386;SDS011;5748;53.102;8.456;2023-04-25T09:09:59;1.83;;;1.00;;
11386;SDS011;5748;53.102;8.456;2023-04-25T09:12:30;1.40;;;0.90;;
11386;SDS011;5748;53.102;8.456;2023-04-25T09:15:03;1.03;;;0.60;;
11386;SDS011;5748;53.102;8.456;2023-04-25T09:17:32;1.40;;;0.60;;
11386;SDS011;5748;53.102;8.456;2023-04-25T09:20:07;0.93;;;0.57;;
11386;SDS011;5748;53.102;8.456;2023-04-25T09:22:40;0.90;;;0.60;;
11386;SDS011;5748;53.102;8.456;2023-04-25T09:25:08;0.70;;;0.60;;
11386;SDS011;5748;53.102;8.456;2023-04-25T09:27:49;0.60;;;0.60;;
11386;SDS011;5748;53.102;8.456;2023-04-25T09:30:17;1.30;;;0.70;;
11386;SDS011;5748;53.102;8.456;2023-04-25T09:32:44;0.40;;;0.40;;
11386;SDS011;5748;53.102;8.456;2023-04-25T09:35:13;1.23;;;0.55;;
11386;SDS011;5748;53.102;8.456;2023-04-25T09:37:51;1.20;;;0.73;;
11386;SDS011;5748;53.102;8.456;2023-04-25T09:40:18;1.27;;;0.73;;
11386;SDS011;5748;53.102;8.456;2023-04-25T09:42:45;1.45;;;0.70;;
11386;SDS011;5748;53.102;8.456;2023-04-25T09:45:13;1.30;;;0.77;;
11386;SDS011;5748;53.102;8.456;2023-04-25T09:47:41;1.48;;;0.73;;
11386;SDS011;5748;53.102;8.456;2023-04-25T09:50:14;1.15;;;0.75;;
11386;SDS011;5748;53.102;8.456;2023-04-25T09:52:44;1.10;;;0.75;;
11386;SDS011;5748;53.102;8.456;2023-04-25T09:55:12;0.87;;;0.70;;
11386;SDS011;5748;53.102;8.456;2023-04-25T09:57:50;1.10;;;0.60;;
11386;SDS011;5748;53.102;8.456;2023-04-25T10:00:20;1.23;;;0.70;;
11386;SDS011;5748;53.102;8.456;2023-04-25T10:02:47;1.47;;;0.60;;
11386;SDS011;5748;53.102;8.456;2023-04-25T10:05:18;0.73;;;0.67;;
11386;SDS011;5748;53.102;8.456;2023-04-25T10:07:49;1.63;;;0.80;;
11386;SDS011;5748;53.102;8.456;2023-04-25T10:10:17;1.13;;;0.70;;
11386;SDS011;5748;53.102;8.456;2023-04-25T10:12:45;0.73;;;0.60;;
11386;SDS011;5748;53.102;8.456;2023-04-25T10:15:12;1.17;;;0.77;;
11386;SDS011;5748;53.102;8.456;2023-04-25T10:17:41;1.50;;;0.70;;
11386;SDS011;5748;53.102;8.456;2023-04-25T10:20:09;1.67;;;0.63;;
11386;SDS011;5748;53.102;8.456;2023-04-25T10:22:44;1.33;;;0.83;;
11386;SDS011;5748;53.102;8.456;2023-04-25T10:25:15;0.93;;;0.57;;
11386;SDS011;5748;53.102;8.456;2023-04-25T10:27:43;1.07;;;0.60;;
11386;SDS011;5748;53.102;8.456;2023-04-25T10:30:13;1.37;;;0.80;;
11386;SDS011;5748;53.102;8.456;2023-04-25T10:32:41;1.80;;;0.80;;
11386;SDS011;5748;53.102;8.456;2023-04-25T10:35:12;1.13;;;0.80;;
11386;SDS011;5748;53.102;8.456;2023-04-25T10:40:30;3.20;;;0.93;;
11386;SDS011;5748;53.102;8.456;2023-04-25T10:46:14;1.00;;;0.70;;
11386;SDS011;5748;53.102;8.456;2023-04-25T10:51:28;0.60;;;0.60;;
11386;SDS011;5748;53.102;8.456;2023-04-25T10:53:59;2.17;;;1.00;;
11386;SDS011;5748;53.102;8.456;2023-04-25T10:56:28;1.77;;;0.80;;
11386;SDS011;5748;53.102;8.456;2023-04-25T10:59:03;1.02;;;0.60;;
11386;SDS011;5748;53.102;8.456;2023-04-25T11:01:35;1.20;;;0.80;;
11386;SDS011;5748;53.102;8.456;2023-04-25T11:04:04;1.05;;;0.80;;
11386;SDS011;5748;53.102;8.456;2023-04-25T11:06:36;1.70;;;0.90;;
11386;SDS011;5748;53.102;8.456;2023-04-25T11:09:17;1.73;;;0.73;;
11386;SDS011;5748;53.102;8.456;2023-04-25T11:11:53;1.10;;;0.80;;
11386;SDS011;5748;53.102;8.456;2023-04-25T11:14:22;1.17;;;0.85;;
11386;SDS011;5748;53.102;8.456;2023-04-25T11:16:52;0.93;;;0.70;;
11386;SDS011;5748;53.102;8.456;2023-04-25T11:19:20;1.47;;;0.93;;
11386;SDS011;5748;53.102;8.456;2023-04-25T11:21:48;0.80;;;0.80;;
11386;SDS011;5748;53.102;8.456;2023-04-25T11:24:15;1.80;;;0.80;;
11386;SDS011;5748;53.102;8.456;2023-04-25T11:26:46;1.07;;;0.70;;
11386;SDS011;5748;53.102;8.456;2023-04-25T11:29:13;1.00;;;0.70;;
11386;SDS011;5748;53.102;8.456;2023-04-25T11:31:42;1.40;;;0.80;;
11386;SDS011;5748;53.102;8.456;2023-04-25T11:34:10;0.83;;;0.60;;
11386;SDS011;5748;53.102;8.456;2023-04-25T11:36:38;2.17;;;0.77;;
11386;SDS011;5748;53.102;8.456;2023-04-25T11:39:06;1.50;;;0.90;;
11386;SDS011;5748;53.102;8.456;2023-04-25T11:41:35;0.68;;;0.50;;
11386;SDS011;5748;53.102;8.456;2023-04-25T11:44:05;0.82;;;0.63;;
11386;SDS011;5748;53.102;8.456;2023-04-25T11:46:33;1.13;;;0.50;;
11386;SDS011;5748;53.102;8.456;2023-04-25T11:49:00;1.75;;;0.68;;
11386;SDS011;5748;53.102;8.456;2023-04-25T11:51:29;0.80;;;0.63;;
11386;SDS011;5748;53.102;8.456;2023-04-25T11:53:56;1.10;;;0.63;;
11386;SDS011;5748;53.102;8.456;2023-04-25T11:56:23;1.55;;;0.70;;
11386;SDS011;5748;53.102;8.456;2023-04-25T11:58:55;1.88;;;0.82;;
11386;SDS011;5748;53.102;8.456;2023-04-25T12:01:26;0.83;;;0.80;;
11386;SDS011;5748;53.102;8.456;2023-04-25T12:03:55;1.27;;;0.80;;
11386;SDS011;5748;53.102;8.456;2023-04-25T12:06:31;1.77;;;0.77;;
11386;SDS011;5748;53.102;8.456;2023-04-25T12:09:01;0.80;;;0.70;;
11386;SDS011;5748;53.102;8.456;2023-04-25T12:11:30;0.95;;;0.70;;
11386;SDS011;5748;53.102;8.456;2023-04-25T12:14:02;1.08;;;0.63;;
11386;SDS011;5748;53.102;8.456;2023-04-25T12:16:39;1.27;;;0.80;;
11386;SDS011;5748;53.102;8.456;2023-04-25T12:19:08;1.17;;;0.60;;
11386;SDS011;5748;53.102;8.456;2023-04-25T12:21:35;0.73;;;0.55;;
11386;SDS011;5748;53.102;8.456;2023-04-25T12:24:14;0.70;;;0.50;;
11386;SDS011;5748;53.102;8.456;2023-04-25T12:26:47;1.00;;;0.70;;
11386;SDS011;5748;53.102;8.456;2023-04-25T12:29:20;1.15;;;0.65;;
11386;SDS011;5748;53.102;8.456;2023-04-25T12:31:50;0.73;;;0.68;;
11386;SDS011;5748;53.102;8.456;2023-04-25T12:34:20;1.13;;;0.55;;
11386;SDS011;5748;53.102;8.456;2023-04-25T12:36:48;0.70;;;0.60;;
11386;SDS011;5748;53.102;8.456;2023-04-25T12:39:17;0.90;;;0.55;;
11386;SDS011;5748;53.102;8.456;2023-04-25T12:41:45;0.85;;;0.60;;
11386;SDS011;5748;53.102;8.456;2023-04-25T12:44:13;1.13;;;0.70;;
11386;SDS011;5748;53.102;8.456;2023-04-25T12:46:41;1.00;;;0.70;;
11386;SDS011;5748;53.102;8.456;2023-04-25T12:49:09;0.97;;;0.80;;
11386;SDS011;5748;53.102;8.456;2023-04-25T12:51:38;0.73;;;0.60;;
11386;SDS011;5748;53.102;8.456;2023-04-25T12:54:09;1.70;;;0.70;;
11386;SDS011;5748;53.102;8.456;2023-04-25T12:56:37;0.50;;;0.50;;
11386;SDS011;5748;53.102;8.456;2023-04-25T12:59:05;0.60;;;0.60;;
11386;SDS011;5748;53.102;8.456;2023-04-25T13:01:33;1.10;;;0.70;;
11386;SDS011;5748;53.102;8.456;2023-04-25T13:04:02;0.70;;;0.60;;
11386;SDS011;5748;53.102;8.456;2023-04-25T13:06:29;0.70;;;0.57;;
11386;SDS011;5748;53.102;8.456;2023-04-25T13:08:56;1.60;;;0.80;;
11386;SDS011;5748;53.102;8.456;2023-04-25T13:11:23;1.25;;;0.80;;
11386;SDS011;5748;53.102;8.456;2023-04-25T13:13:50;2.58;;;1.00;;
11386;SDS011;5748;53.102;8.456;2023-04-25T13:16:17;0.90;;;0.63;;
11386;SDS011;5748;53.102;8.456;2023-04-25T13:18:46;0.73;;;0.50;;
11386;SDS011;5748;53.102;8.456;2023-04-25T13:21:16;1.30;;;0.70;;
11386;SDS011;5748;53.102;8.456;2023-04-25T13:23:43;0.52;;;0.50;;
11386;SDS011;5748;53.102;8.456;2023-04-25T13:26:11;0.50;;;0.50;;
11386;SDS011;5748;53.102;8.456;2023-04-25T13:28:38;0.70;;;0.60;;
11386;SDS011;5748;53.102;8.456;2023-04-25T13:31:06;0.70;;;0.60;;
11386;SDS011;5748;53.102;8.456;2023-04-25T13:33:33;1.75;;;0.65;;
11386;SDS011;5748;53.102;8.456;2023-04-25T13:36:00;0.75;;;0.52;;
11386;SDS011;5748;53.102;8.456;2023-04-25T13:38:30;0.60;;;0.40;;
11386;SDS011;5748;53.102;8.456;2023-04-25T13:40:57;1.50;;;0.57;;
11386;SDS011;5748;53.102;8.456;2023-04-25T13:43:24;1.25;;;0.63;;
11386;SDS011;5748;53.102;8.456;2023-04-25T13:45:51;1.38;;;0.77;;
11386;SDS011;5748;53.102;8.456;2023-04-25T13:48:18;0.55;;;0.50;;
11386;SDS011;5748;53.102;8.456;2023-04-25T13:50:45;0.73;;;0.50;;
11386;SDS011;5748;53.102;8.456;2023-04-25T13:53:12;1.75;;;0.85;;
11386;SDS011;5748;53.102;8.456;2023-04-25T13:55:41;0.80;;;0.50;;
11386;SDS011;5748;53.102;8.456;2023-04-25T13:58:08;1.05;;;0.68;;
11386;SDS011;5748;53.102;8.456;2023-04-25T14:00:35;0.90;;;0.70;;
11386;SDS011;5748;53.102;8.456;2023-04-25T14:03:04;1.13;;;0.77;;
11386;SDS011;5748;53.102;8.456;2023-04-25T14:05:33;1.37;;;0.90;;
11386;SDS011;5748;53.102;8.456;2023-04-25T14:08:05;1.23;;;0.80;;
11386;SDS011;5748;53.102;8.456;2023-04-25T14:10:33;0.87;;;0.80;;
11386;SDS011;5748;53.102;8.456;2023-04-25T14:13:02;1.77;;;0.87;;
11386;SDS011;5748;53.102;8.456;2023-04-25T14:15:30;1.33;;;0.83;;
11386;SDS011;5748;53.102;8.456;2023-04-25T14:17:58;1.10;;;0.60;;
11386;SDS011;5748;53.102;8.456;2023-04-25T14:20:28;1.17;;;0.73;;
11386;SDS011;5748;53.102;8.456;2023-04-25T14:22:57;0.87;;;0.63;;
11386;SDS011;5748;53.102;8.456;2023-04-25T14:25:24;0.77;;;0.63;;
11386;SDS011;5748;53.102;8.456;2023-04-25T14:27:53;0.80;;;0.70;;
11386;SDS011;5748;53.102;8.456;2023-04-25T14:30:21;0.70;;;0.60;;
11386;SDS011;5748;53.102;8.456;2023-04-25T14:32:48;0.77;;;0.67;;
11386;SDS011;5748;53.102;8.456;2023-04-25T14:35:17;0.60;;;0.53;;
11386;SDS011;5748;53.102;8.456;2023-04-25T14:37:45;1.20;;;0.67;;
11386;SDS011;5748;53.102;8.456;2023-04-25T14:40:12;1.87;;;0.60;;
11386;SDS011;5748;53.102;8.456;2023-04-25T14:42:40;0.70;;;0.60;;
11386;SDS011;5748;53.102;8.456;2023-04-25T14:45:08;0.80;;;0.70;;
11386;SDS011;5748;53.102;8.456;2023-04-25T14:47:37;1.07;;;0.63;;
11386;SDS011;5748;53.102;8.456;2023-04-25T14:50:05;0.90;;;0.67;;
11386;SDS011;5748;53.102;8.456;2023-04-25T14:52:35;1.23;;;0.70;;
11386;SDS011;5748;53.102;8.456;2023-04-25T14:55:02;1.17;;;0.67;;
11386;SDS011;5748;53.102;8.456;2023-04-25T15:00:21;1.07;;;0.70;;
11386;SDS011;5748;53.102;8.456;2023-04-25T15:02:53;0.70;;;0.70;;
11386;SDS011;5748;53.102;8.456;2023-04-25T15:05:20;2.10;;;0.80;;
11386;SDS011;5748;53.102;8.456;2023-04-25T15:07:47;1.53;;;0.67;;
11386;SDS011;5748;53.102;8.456;2023-04-25T15:10:16;1.13;;;0.70;;
11386;SDS011;5748;53.102;8.456;2023-04-25T15:12:44;1.27;;;0.73;;
11386;SDS011;5748;53.102;8.456;2023-04-25T15:15:12;1.17;;;0.80;;
11386;SDS011;5748;53.102;8.456;2023-04-25T15:17:40;0.93;;;0.80;;
11386;SDS011;5748;53.102;8.456;2023-04-25T15:20:10;0.70;;;0.60;;
11386;SDS011;5748;53.102;8.456;2023-04-25T15:22:40;2.03;;;0.80;;